createdAt,value
2017-08-01T00:00:17.050Z,96.46
2017-08-01T00:01:17.096Z,95.89
2017-08-01T00:02:17.134Z,95.98
2017-08-01T00:03:17.163Z,98.97
2017-08-01T00:04:17.212Z,98.68
2017-08-01T00:05:17.536Z,97.62
2017-08-01T00:06:17.280Z,96.94
2017-08-01T00:07:17.327Z,96.66
2017-08-01T00:08:17.350Z,95.69
2017-08-01T00:09:17.414Z,95.5
2017-08-01T00:10:17.411Z,97.81
2017-08-01T00:11:17.466Z,97.86
2017-08-01T00:12:17.503Z,97.57
2017-08-01T00:13:17.521Z,97.19
2017-08-01T00:14:17.578Z,96.42
2017-08-01T00:15:17.603Z,95.64
2017-08-01T00:16:17.656Z,95.16
2017-08-01T00:17:17.700Z,95.07
2017-08-01T00:18:17.732Z,94.78
2017-08-01T00:19:17.765Z,94.68
2017-08-01T00:20:17.798Z,94.49
2017-08-01T00:21:17.842Z,94.78
2017-08-01T00:22:17.867Z,94.39
2017-08-01T00:23:17.909Z,95.07
2017-08-01T00:24:17.936Z,94.87
2017-08-01T00:25:17.964Z,95.12
2017-08-01T00:26:18.028Z,95.12
2017-08-01T00:27:18.020Z,94.87
2017-08-01T00:28:18.098Z,94.59
2017-08-01T00:29:18.138Z,95.07
2017-08-01T00:30:18.259Z,97.57
2017-08-01T00:31:18.208Z,97.76
2017-08-01T00:32:18.222Z,97.24
2017-08-01T00:33:18.285Z,96.46
2017-08-01T00:34:18.329Z,97.24
2017-08-01T00:35:18.339Z,99.06
2017-08-01T00:36:18.395Z,98.68
2017-08-01T00:37:18.429Z,97.52
2017-08-01T00:38:18.468Z,97.33
2017-08-01T00:39:18.502Z,98.1
2017-08-01T00:40:18.520Z,99.06
2017-08-01T00:41:18.583Z,99.44
2017-08-01T00:42:18.618Z,98.72
2017-08-01T00:43:18.655Z,97.96
2017-08-01T00:44:18.694Z,97.09
2017-08-01T00:45:18.734Z,96.42
2017-08-01T00:46:18.745Z,96.89
2017-08-01T00:47:18.801Z,96.12
2017-08-01T00:48:18.840Z,95.74
2017-08-01T00:49:18.881Z,95.07
2017-08-01T00:50:18.914Z,95.07
2017-08-01T00:51:18.929Z,97.47
2017-08-01T00:52:18.983Z,97.72
2017-08-01T00:53:19.024Z,97.33
2017-08-01T00:54:19.048Z,96.42
2017-08-01T00:55:19.094Z,95.94
2017-08-01T00:56:19.119Z,95.02
2017-08-01T00:57:19.152Z,94.24
2017-08-01T00:58:19.210Z,95.79
2017-08-01T00:59:19.220Z,95.11
2017-08-01T01:00:19.278Z,95.21
2017-08-01T01:01:19.322Z,97.14
2017-08-01T01:02:19.334Z,97.52
2017-08-01T01:03:19.396Z,97.52
2017-08-01T01:04:19.431Z,96.27
2017-08-01T01:05:19.537Z,95.59
2017-08-01T01:06:19.503Z,95.21
2017-08-01T01:07:19.537Z,95.59
2017-08-01T01:08:19.577Z,96.17
2017-08-01T01:09:19.593Z,97.04
2017-08-01T01:10:19.633Z,96.56
2017-08-01T01:11:19.695Z,95.79
2017-08-01T01:12:19.720Z,96.17
2017-08-01T01:13:19.768Z,95.89
2017-08-01T01:14:19.804Z,97.24
2017-08-01T01:15:19.938Z,96.08
2017-08-01T01:16:19.874Z,94.92
2017-08-01T01:17:19.911Z,95.02
2017-08-01T01:18:19.924Z,94.82
2017-08-01T01:19:19.985Z,95.21
2017-08-01T01:20:20.278Z,94.63
2017-08-01T01:21:20.038Z,95.31
2017-08-01T01:22:20.072Z,94.82
2017-08-01T01:23:20.136Z,94.34
2017-08-01T01:24:20.137Z,94.24
2017-08-01T01:25:20.206Z,95.21
2017-08-01T01:26:20.241Z,95.11
2017-08-01T01:27:20.263Z,95.11
2017-08-01T01:28:20.322Z,94.73
2017-08-01T01:29:20.337Z,94.78
2017-08-01T01:30:20.390Z,94.44
2017-08-01T01:31:20.416Z,94.01
2017-08-01T01:32:20.466Z,93.81
2017-08-01T01:33:20.507Z,94.59
2017-08-01T01:34:20.549Z,94.78
2017-08-01T01:35:20.578Z,94.87
2017-08-01T01:36:20.613Z,95.16
2017-08-01T01:37:20.632Z,94.97
2017-08-01T01:38:20.699Z,95.74
2017-08-01T01:39:20.725Z,95.64
2017-08-01T01:40:20.763Z,95.74
2017-08-01T01:41:20.802Z,99.06
2017-08-01T01:42:20.837Z,99.99
2017-08-01T01:43:20.874Z,99.99
2017-08-01T01:44:20.912Z,99.99
2017-08-01T01:45:20.941Z,99.44
2017-08-01T01:46:20.986Z,99.26
2017-08-01T01:47:21.004Z,99.06
2017-08-01T01:48:21.040Z,98.68
2017-08-01T01:49:21.096Z,98.19
2017-08-01T01:50:21.134Z,98.68
2017-08-01T01:51:21.171Z,98.63
2017-08-01T01:52:21.204Z,97.96
2017-08-01T01:53:21.226Z,97.47
2017-08-01T01:54:21.291Z,97.86
2017-08-01T01:55:21.320Z,97.47
2017-08-01T01:56:21.356Z,97.57
2017-08-01T01:57:21.375Z,97.28
2017-08-01T01:58:21.435Z,97.14
2017-08-01T01:59:21.465Z,97.33
2017-08-01T02:00:21.509Z,99.44
2017-08-01T02:01:21.643Z,99.99
2017-08-01T02:02:21.680Z,99.06
2017-08-01T02:03:21.614Z,99.06
2017-08-01T02:04:21.727Z,98.19
2017-08-01T02:05:21.691Z,98.39
2017-08-01T02:06:21.827Z,98.1
2017-08-01T02:07:21.763Z,97.62
2017-08-01T02:08:21.797Z,97.19
2017-08-01T02:09:21.959Z,96.89
2017-08-01T02:10:21.877Z,97.67
2017-08-01T02:11:21.914Z,97.76
2017-08-01T02:12:21.934Z,97.38
2017-08-01T02:13:21.983Z,96.89
2017-08-01T02:14:22.046Z,96.89
2017-08-01T02:15:22.057Z,97.67
2017-08-01T02:16:22.076Z,97.47
2017-08-01T02:17:22.140Z,98.54
2017-08-01T02:18:22.153Z,99.5
2017-08-01T02:19:22.184Z,99.11
2017-08-01T02:20:22.251Z,99.11
2017-08-01T02:21:22.262Z,98.72
2017-08-01T02:22:22.317Z,97.67
2017-08-01T02:23:22.335Z,97.28
2017-08-01T02:24:22.392Z,97.19
2017-08-01T02:25:22.415Z,97.19
2017-08-01T02:26:22.443Z,97.09
2017-08-01T02:27:22.514Z,96.42
2017-08-01T02:28:22.539Z,96.32
2017-08-01T02:29:22.576Z,97.67
2017-08-01T02:30:22.616Z,98.72
2017-08-01T02:31:22.651Z,98.24
2017-08-01T02:32:22.688Z,97.38
2017-08-01T02:33:22.718Z,97.47
2017-08-01T02:34:22.756Z,97.96
2017-08-01T02:35:22.796Z,97.47
2017-08-01T02:36:22.833Z,97.47
2017-08-01T02:37:22.871Z,97.19
2017-08-01T02:38:22.907Z,96.89
2017-08-01T02:39:22.946Z,96.22
2017-08-01T02:40:22.982Z,95.94
2017-08-01T02:41:23.019Z,96.12
2017-08-01T02:42:23.053Z,96.22
2017-08-01T02:43:23.094Z,96.61
2017-08-01T02:44:23.129Z,96.46
2017-08-01T02:45:23.159Z,96.37
2017-08-01T02:46:23.208Z,96.51
2017-08-01T02:47:23.251Z,98.77
2017-08-01T02:48:23.276Z,98
2017-08-01T02:49:23.320Z,98
2017-08-01T02:50:23.351Z,97.86
2017-08-01T02:51:23.386Z,99.84
2017-08-01T02:52:23.425Z,98.97
2017-08-01T02:53:23.439Z,98.63
2017-08-01T02:54:23.503Z,98.92
2017-08-01T02:55:23.538Z,99.79
2017-08-01T02:56:23.575Z,99.11
2017-08-01T02:57:23.710Z,98.92
2017-08-01T02:58:23.637Z,99.3
2017-08-01T02:59:23.685Z,99.99
2017-08-01T03:00:23.719Z,99.11
2017-08-01T03:01:23.758Z,98.2
2017-08-01T03:02:23.940Z,98.15
2017-08-01T03:03:23.834Z,99.99
2017-08-01T03:04:28.507Z,99.64
2017-08-01T03:05:23.904Z,98.97
2017-08-01T03:06:23.944Z,98.97
2017-08-01T03:07:23.948Z,99.5
2017-08-01T03:08:24.015Z,99.99
2017-08-01T03:09:24.052Z,99.99
2017-08-01T03:10:24.089Z,99.99
2017-08-01T03:11:24.126Z,99.99
2017-08-01T03:12:24.156Z,99.99
2017-08-01T03:13:24.197Z,99.99
2017-08-01T03:14:24.240Z,99.99
2017-08-01T03:15:24.275Z,99.99
2017-08-01T03:16:24.318Z,99.99
2017-08-01T03:17:24.350Z,99.99
2017-08-01T03:18:24.384Z,99.99
2017-08-01T03:19:24.420Z,99.99
2017-08-01T03:20:24.456Z,99.99
2017-08-01T03:21:24.495Z,99.99
2017-08-01T03:22:24.516Z,99.99
2017-08-01T03:23:24.574Z,99.99
2017-08-01T03:24:24.606Z,99.99
2017-08-01T03:25:24.645Z,99.99
2017-08-01T03:26:24.727Z,99.99
2017-08-01T03:27:24.691Z,99.99
2017-08-01T03:28:24.750Z,99.99
2017-08-01T03:29:24.778Z,99.99
2017-08-01T03:30:24.826Z,99.98
2017-08-01T03:31:24.860Z,99.69
2017-08-01T03:32:24.899Z,99.98
2017-08-01T03:33:24.945Z,99.59
2017-08-01T03:34:24.953Z,99.99
2017-08-01T03:35:25.010Z,99.99
2017-08-01T03:36:25.051Z,99.69
2017-08-01T03:37:25.063Z,99.88
2017-08-01T03:38:25.121Z,99.99
2017-08-01T03:39:25.135Z,99.99
2017-08-01T03:40:25.194Z,99.99
2017-08-01T03:41:25.236Z,99.99
2017-08-01T03:42:25.263Z,99.99
2017-08-01T03:43:25.305Z,99.99
2017-08-01T03:44:25.344Z,99.99
2017-08-01T03:45:25.373Z,99.99
2017-08-01T03:46:25.411Z,99.99
2017-08-01T03:47:25.450Z,99.99
2017-08-01T03:48:25.593Z,99.99
2017-08-01T03:49:25.521Z,99.99
2017-08-01T03:50:25.550Z,99.99
2017-08-01T03:51:25.596Z,99.99
2017-08-01T03:52:25.634Z,99.99
2017-08-01T03:53:25.653Z,99.99
2017-08-01T03:54:25.689Z,99.99
2017-08-01T03:55:25.751Z,99.99
2017-08-01T03:56:25.784Z,99.99
2017-08-01T03:57:25.816Z,99.99
2017-08-01T03:58:26.155Z,99.99
2017-08-01T03:59:25.872Z,99.99
2017-08-01T04:02:24.755Z,99.99
2017-08-01T04:03:24.775Z,99.99
2017-08-01T04:04:24.814Z,99.99
2017-08-01T04:05:24.840Z,99.99
2017-08-01T04:06:24.908Z,99.99
2017-08-01T04:07:24.906Z,99.99
2017-08-01T04:08:24.954Z,99.99
2017-08-01T04:09:24.976Z,99.99
2017-08-01T04:10:25.016Z,99.99
2017-08-01T04:11:25.037Z,99.99
2017-08-01T04:12:25.093Z,99.99
2017-08-01T04:13:25.144Z,99.99
2017-08-01T04:14:25.172Z,99.99
2017-08-01T04:15:25.216Z,99.99
2017-08-01T04:16:25.253Z,99.99
2017-08-01T04:17:25.271Z,99.99
2017-08-01T04:18:25.329Z,99.99
2017-08-01T04:19:25.348Z,99.99
2017-08-01T04:20:25.408Z,99.99
2017-08-01T04:21:25.449Z,99.99
2017-08-01T04:22:25.468Z,99.99
2017-08-01T04:23:25.496Z,99.99
2017-08-01T04:24:25.545Z,99.99
2017-08-01T04:25:25.584Z,99.99
2017-08-01T04:26:25.608Z,99.99
2017-08-01T04:27:25.652Z,99.99
2017-08-01T04:28:25.746Z,99.99
2017-08-01T04:29:25.726Z,99.99
2017-08-01T04:30:25.755Z,99.99
2017-08-01T04:31:25.798Z,99.99
2017-08-01T04:32:25.837Z,99.99
2017-08-01T04:33:25.865Z,99.99
2017-08-01T04:34:25.909Z,99.99
2017-08-01T04:35:25.939Z,99.99
2017-08-01T04:36:25.976Z,99.99
2017-08-01T04:37:26.025Z,99.99
2017-08-01T04:38:26.035Z,99.99
2017-08-01T04:39:26.106Z,99.99
2017-08-01T04:40:26.125Z,99.99
2017-08-01T04:41:26.170Z,99.99
2017-08-01T04:42:26.185Z,99.99
2017-08-01T04:43:26.246Z,99.99
2017-08-01T04:44:26.375Z,99.99
2017-08-01T04:45:26.326Z,99.99
2017-08-01T04:46:26.345Z,99.99
2017-08-01T04:47:26.563Z,99.99
2017-08-01T04:48:26.390Z,99.99
2017-08-01T04:49:26.613Z,99.99
2017-08-01T04:50:26.471Z,99.99
2017-08-01T04:51:26.526Z,99.99
2017-08-01T04:52:26.552Z,99.99
2017-08-01T04:53:26.596Z,99.99
2017-08-01T04:54:26.639Z,99.99
2017-08-01T04:55:26.669Z,99.99
2017-08-01T04:56:26.707Z,99.99
2017-08-01T04:57:26.778Z,99.99
2017-08-01T04:58:26.787Z,99.99
2017-08-01T04:59:26.801Z,99.99
2017-08-01T05:00:26.834Z,99.99
2017-08-01T05:01:26.871Z,99.99
2017-08-01T05:02:26.915Z,99.99
2017-08-01T05:03:26.965Z,99.99
2017-08-01T05:04:26.981Z,99.99
2017-08-01T05:05:27.029Z,99.99
2017-08-01T05:06:27.109Z,99.99
2017-08-01T05:07:27.089Z,99.99
2017-08-01T05:08:27.143Z,99.99
2017-08-01T05:09:27.181Z,99.99
2017-08-01T05:10:27.213Z,99.99
2017-08-01T05:11:27.237Z,99.99
2017-08-01T05:12:27.292Z,99.99
2017-08-01T05:13:27.335Z,99.99
2017-08-01T05:14:27.356Z,99.99
2017-08-01T05:15:27.417Z,99.99
2017-08-01T05:16:27.431Z,99.99
2017-08-01T05:17:27.465Z,99.99
2017-08-01T05:18:27.478Z,99.99
2017-08-01T05:19:27.525Z,99.99
2017-08-01T05:20:27.580Z,99.99
2017-08-01T05:21:27.619Z,99.99
2017-08-01T05:22:27.652Z,99.99
2017-08-01T05:23:27.668Z,99.99
2017-08-01T05:24:27.718Z,99.99
2017-08-01T05:25:27.765Z,99.99
2017-08-01T05:26:27.798Z,99.99
2017-08-01T05:27:27.836Z,99.99
2017-08-01T05:28:27.868Z,99.99
2017-08-01T05:29:27.905Z,99.99
2017-08-01T05:30:27.940Z,99.99
2017-08-01T05:31:27.983Z,99.99
2017-08-01T05:32:28.013Z,99.99
2017-08-01T05:33:28.049Z,99.99
2017-08-01T05:34:28.071Z,99.99
2017-08-01T05:35:28.132Z,99.99
2017-08-01T05:36:28.158Z,99.99
2017-08-01T05:37:28.411Z,99.99
2017-08-01T05:38:28.240Z,99.99
2017-08-01T05:39:28.258Z,99.99
2017-08-01T05:40:28.296Z,99.99
2017-08-01T05:41:28.352Z,99.99
2017-08-01T05:42:28.369Z,99.99
2017-08-01T05:43:28.412Z,99.99
2017-08-01T05:44:28.436Z,99.99
2017-08-01T05:45:28.490Z,99.99
2017-08-01T05:46:28.512Z,99.99
2017-08-01T05:47:28.557Z,99.99
2017-08-01T05:48:28.590Z,99.99
2017-08-01T05:49:28.614Z,99.99
2017-08-01T05:50:28.661Z,99.99
2017-08-01T05:51:28.701Z,99.99
2017-08-01T05:52:28.735Z,99.99
2017-08-01T05:53:28.788Z,99.99
2017-08-01T05:54:28.808Z,99.99
2017-08-01T05:55:28.857Z,99.99
2017-08-01T05:56:28.887Z,99.99
2017-08-01T05:57:28.897Z,99.99
2017-08-01T05:58:28.953Z,99.99
2017-08-01T05:59:28.991Z,99.99
2017-08-01T06:00:28.999Z,99.99
2017-08-01T06:01:29.055Z,99.99
2017-08-01T06:02:29.091Z,99.99
2017-08-01T06:03:29.109Z,99.99
2017-08-01T06:04:29.149Z,99.99
2017-08-01T06:05:29.209Z,99.99
2017-08-01T06:06:29.217Z,99.99
2017-08-01T06:07:29.258Z,99.99
2017-08-01T06:08:29.289Z,99.99
2017-08-01T06:09:29.344Z,99.99
2017-08-01T06:10:29.363Z,99.99
2017-08-01T06:11:29.403Z,99.99
2017-08-01T06:12:29.476Z,99.99
2017-08-01T06:13:29.490Z,99.99
2017-08-01T06:14:29.496Z,99.99
2017-08-01T06:15:29.570Z,99.99
2017-08-01T06:16:29.593Z,99.99
2017-08-01T06:17:29.613Z,99.99
2017-08-01T06:18:29.659Z,99.99
2017-08-01T06:19:29.690Z,99.99
2017-08-01T06:20:29.722Z,99.99
2017-08-01T06:21:29.765Z,99.99
2017-08-01T06:22:29.792Z,99.99
2017-08-01T06:23:29.834Z,99.99
2017-08-01T06:24:29.874Z,99.99
2017-08-01T06:25:29.886Z,99.99
2017-08-01T06:26:29.935Z,99.99
2017-08-01T06:27:29.954Z,99.99
2017-08-01T06:28:30.025Z,99.99
2017-08-01T06:29:30.037Z,99.99
2017-08-01T06:30:30.077Z,99.99
2017-08-01T06:31:30.108Z,99.99
2017-08-01T06:32:30.116Z,99.99
2017-08-01T06:33:30.186Z,99.99
2017-08-01T06:34:30.223Z,99.99
2017-08-01T06:35:30.261Z,99.99
2017-08-01T06:36:30.285Z,99.99
2017-08-01T06:37:30.325Z,99.99
2017-08-01T06:38:30.367Z,99.99
2017-08-01T06:39:30.379Z,99.99
2017-08-01T06:40:30.441Z,99.99
2017-08-01T06:41:30.472Z,99.99
2017-08-01T06:42:30.502Z,99.99
2017-08-01T06:43:30.513Z,99.99
2017-08-01T06:44:30.574Z,99.99
2017-08-01T06:45:30.611Z,99.99
2017-08-01T06:46:30.627Z,99.99
2017-08-01T06:47:30.686Z,99.99
2017-08-01T06:48:30.718Z,99.99
2017-08-01T06:49:30.734Z,99.99
2017-08-01T06:50:30.788Z,99.99
2017-08-01T06:51:30.812Z,99.99
2017-08-01T06:52:30.865Z,99.99
2017-08-01T06:53:30.897Z,99.99
2017-08-01T06:54:30.940Z,99.99
2017-08-01T06:55:30.975Z,99.99
2017-08-01T06:56:31.002Z,99.99
2017-08-01T06:57:31.063Z,99.99
2017-08-01T06:58:31.086Z,99.99
2017-08-01T06:59:31.117Z,99.99
2017-08-01T07:00:31.158Z,99.99
2017-08-01T07:01:31.194Z,99.99
2017-08-01T07:02:31.223Z,99.99
2017-08-01T07:03:31.254Z,99.99
2017-08-01T07:04:31.308Z,99.99
2017-08-01T07:05:31.355Z,99.99
2017-08-01T07:06:31.403Z,99.99
2017-08-01T07:07:31.432Z,99.99
2017-08-01T07:08:31.449Z,99.99
2017-08-01T07:09:31.484Z,99.99
2017-08-01T07:10:31.555Z,99.99
2017-08-01T07:11:31.562Z,99.99
2017-08-01T07:12:31.616Z,94.79
2017-08-01T07:13:31.666Z,91.04
2017-08-01T07:14:31.701Z,92.6
2017-08-01T07:15:31.739Z,95.03
2017-08-01T07:16:31.771Z,90
2017-08-01T07:17:31.818Z,90.44
2017-08-01T07:18:31.860Z,88.92
2017-08-01T07:19:31.889Z,86.27
2017-08-01T07:20:31.951Z,87.64
2017-08-01T07:21:31.999Z,84.16
2017-08-01T07:22:32.115Z,91
2017-08-01T07:23:32.063Z,81.72
2017-08-01T07:24:32.099Z,89.54
2017-08-01T07:25:32.150Z,93.21
2017-08-01T07:26:32.192Z,84.41
2017-08-01T07:27:32.707Z,86.04
2017-08-01T07:28:32.277Z,89.4
2017-08-01T07:29:32.497Z,87.94
2017-08-01T07:30:32.370Z,93.37
2017-08-01T07:31:32.386Z,91.16
2017-08-01T07:32:32.411Z,93.99
2017-08-01T07:33:32.487Z,96.09
2017-08-01T07:34:32.494Z,96.09
2017-08-01T07:35:32.556Z,92.93
2017-08-01T07:36:32.589Z,88.73
2017-08-01T07:37:32.867Z,92.64
2017-08-01T07:38:32.680Z,97.75
2017-08-01T07:39:33.330Z,94.84
2017-08-01T07:40:32.750Z,95.86
2017-08-01T07:41:33.428Z,99.99
2017-08-01T07:42:32.850Z,98.88
2017-08-01T07:43:32.890Z,99.99
2017-08-01T07:44:32.938Z,99.99
2017-08-01T07:45:32.975Z,99.99
2017-08-01T07:46:33.005Z,99.99
2017-08-01T07:47:33.049Z,99.99
2017-08-01T07:48:33.095Z,93.47
2017-08-01T07:49:33.115Z,93.71
2017-08-01T07:50:33.153Z,92.54
2017-08-01T07:51:33.227Z,94.78
2017-08-01T07:52:33.260Z,93.23
2017-08-01T07:53:33.297Z,96.59
2017-08-01T07:54:33.428Z,95.81
2017-08-01T07:55:33.379Z,94.8
2017-08-01T07:56:33.410Z,99.99
2017-08-01T07:57:33.458Z,98.15
2017-08-01T07:58:33.506Z,99.99
2017-08-01T07:59:33.533Z,99.99
2017-08-01T08:00:33.577Z,99.99
2017-08-01T08:01:33.602Z,98.83
2017-08-01T08:02:33.680Z,98.35
2017-08-01T08:03:33.698Z,98.83
2017-08-01T08:04:33.735Z,97.76
2017-08-01T08:05:33.778Z,98.63
2017-08-01T08:06:33.806Z,99.99
2017-08-01T08:07:33.840Z,99.17
2017-08-01T08:08:33.903Z,99.99
2017-08-01T08:09:33.937Z,99.99
2017-08-01T08:10:33.979Z,99.99
2017-08-01T08:11:34.020Z,97.75
2017-08-01T08:12:34.056Z,93.7
2017-08-01T08:13:34.104Z,91
2017-08-01T08:14:34.145Z,89.37
2017-08-01T08:15:34.187Z,87.16
2017-08-01T08:16:34.208Z,83.6
2017-08-01T08:17:34.272Z,80.33
2017-08-01T08:18:34.315Z,81.25
2017-08-01T08:19:34.351Z,84.86
2017-08-01T08:20:34.379Z,78.7
2017-08-01T08:21:34.417Z,79.44
2017-08-01T08:22:34.510Z,73.85
2017-08-01T08:23:34.502Z,68.73
2017-08-01T08:24:34.575Z,63.37
2017-08-01T08:25:34.623Z,63.17
2017-08-01T08:26:34.678Z,60.93
2017-08-01T08:27:34.690Z,63.86
2017-08-01T08:28:34.740Z,63.6
2017-08-01T08:29:34.778Z,64.88
2017-08-01T08:30:34.829Z,66.63
2017-08-01T08:31:34.890Z,67.18
2017-08-01T08:32:34.913Z,58.75
2017-08-01T08:33:34.961Z,58.06
2017-08-01T08:34:35.006Z,60.93
2017-08-01T08:35:35.019Z,58.14
2017-08-01T08:36:35.087Z,59.29
2017-08-01T08:37:35.174Z,61.74
2017-08-01T08:38:35.159Z,63.75
2017-08-01T08:39:35.224Z,67.65
2017-08-01T08:40:35.277Z,70.03
2017-08-01T08:41:35.320Z,72.44
2017-08-01T08:42:35.348Z,73.13
2017-08-01T08:43:35.374Z,79.72
2017-08-01T08:44:35.437Z,72.88
2017-08-01T08:45:35.488Z,63.52
2017-08-01T08:46:35.547Z,64.89
2017-08-01T08:47:35.753Z,65.25
2017-08-01T08:48:35.618Z,66.6
2017-08-01T08:49:35.671Z,64.11
2017-08-01T08:50:35.695Z,67.54
2017-08-01T08:51:35.758Z,71.2
2017-08-01T08:52:35.820Z,70.87
2017-08-01T08:53:35.836Z,73.47
2017-08-01T08:54:35.886Z,71.22
2017-08-01T08:55:35.930Z,73.18
2017-08-01T08:56:35.969Z,73.44
2017-08-01T08:57:36.024Z,74.9
2017-08-01T08:58:36.063Z,72.85
2017-08-01T08:59:36.119Z,73.18
2017-08-01T09:00:36.178Z,72.92
2017-08-01T09:01:36.190Z,76.97
2017-08-01T09:02:36.239Z,75.73
2017-08-01T09:03:36.305Z,72.93
2017-08-01T09:04:36.336Z,70.61
2017-08-01T09:05:36.373Z,69.05
2017-08-01T09:06:36.440Z,67.84
2017-08-01T09:07:36.436Z,71.43
2017-08-01T09:08:36.492Z,65.19
2017-08-01T09:09:36.531Z,61.94
2017-08-01T09:10:36.608Z,63.21
2017-08-01T09:11:36.611Z,60.54
2017-08-01T09:12:36.680Z,64.55
2017-08-01T09:13:36.733Z,69.85
2017-08-01T09:14:36.753Z,56.07
2017-08-01T09:15:36.818Z,62.56
2017-08-01T09:16:36.840Z,63.91
2017-08-01T09:17:36.911Z,62.02
2017-08-01T09:18:36.929Z,51.57
2017-08-01T09:19:36.998Z,50.78
2017-08-01T09:20:37.036Z,50.16
2017-08-01T09:21:37.096Z,55.19
2017-08-01T09:22:37.129Z,51.1
2017-08-01T09:23:37.182Z,49.51
2017-08-01T09:24:37.236Z,48.77
2017-08-01T09:25:37.246Z,55.91
2017-08-01T09:26:37.334Z,53.92
2017-08-01T09:27:37.382Z,55.07
2017-08-01T09:28:37.405Z,56.21
2017-08-01T09:29:37.439Z,54.38
2017-08-01T09:30:37.665Z,49.66
2017-08-01T09:31:37.549Z,49.98
2017-08-01T09:32:37.623Z,49.18
2017-08-01T09:33:37.650Z,53.74
2017-08-01T09:34:37.710Z,49.55
2017-08-01T09:35:37.912Z,50.35
2017-08-01T09:36:37.803Z,50.95
2017-08-01T09:37:37.855Z,47.29
2017-08-01T09:38:37.908Z,50.82
2017-08-01T09:39:37.949Z,48.44
2017-08-01T09:40:37.978Z,48.32
2017-08-01T09:41:38.052Z,50.4
2017-08-01T09:42:38.103Z,55.38
2017-08-01T09:43:38.149Z,49.51
2017-08-01T09:44:38.215Z,50.82
2017-08-01T09:45:38.254Z,47.99
2017-08-01T09:46:38.283Z,47.83
2017-08-01T09:47:38.343Z,47.24
2017-08-01T09:48:38.389Z,49.85
2017-08-01T09:49:38.454Z,42.91
2017-08-01T09:50:38.522Z,45.93
2017-08-01T09:51:38.553Z,47.71
2017-08-01T09:52:38.604Z,46.8
2017-08-01T09:53:38.649Z,48.7
2017-08-01T09:54:38.700Z,46.83
2017-08-01T09:55:38.749Z,48.32
2017-08-01T09:56:39.017Z,46.35
2017-08-01T09:57:38.836Z,40.17
2017-08-01T09:58:38.894Z,40.64
2017-08-01T09:59:38.969Z,42.55
2017-08-01T10:00:39.020Z,42.79
2017-08-01T10:01:39.064Z,42.45
2017-08-01T10:02:39.118Z,44.71
2017-08-01T10:03:39.148Z,46.88
2017-08-01T10:04:39.199Z,47.3
2017-08-01T10:05:39.253Z,44.64
2017-08-01T10:06:39.290Z,48.64
2017-08-01T10:07:39.332Z,48.26
2017-08-01T10:08:39.449Z,50
2017-08-01T10:09:39.439Z,46.66
2017-08-01T10:10:39.524Z,43.83
2017-08-01T10:11:39.564Z,43.51
2017-08-01T10:12:39.644Z,44.61
2017-08-01T10:13:39.659Z,40.81
2017-08-01T10:14:39.703Z,42.67
2017-08-01T10:15:40.019Z,44.15
2017-08-01T10:16:39.832Z,46.04
2017-08-01T10:17:39.865Z,43.65
2017-08-01T10:18:39.895Z,47.24
2017-08-01T10:19:39.957Z,41.6
2017-08-01T10:20:40.106Z,45.26
2017-08-01T10:21:40.051Z,41.89
2017-08-01T10:22:40.105Z,41.67
2017-08-01T10:23:40.164Z,43.87
2017-08-01T10:24:40.192Z,41.47
2017-08-01T10:25:40.246Z,42.25
2017-08-01T10:26:40.759Z,43.97
2017-08-01T10:27:40.345Z,43.87
2017-08-01T10:28:40.393Z,44.07
2017-08-01T10:29:40.443Z,44.38
2017-08-01T10:30:40.456Z,42.02
2017-08-01T10:31:40.547Z,41.22
2017-08-01T10:32:40.579Z,40.12
2017-08-01T10:33:40.661Z,40.8
2017-08-01T10:34:40.662Z,40.62
2017-08-01T10:35:40.931Z,40.12
2017-08-01T10:36:40.758Z,40.42
2017-08-01T10:37:40.820Z,40.52
2017-08-01T10:38:40.866Z,39.64
2017-08-01T10:39:40.892Z,39.86
2017-08-01T10:40:40.962Z,39.48
2017-08-01T10:41:41.025Z,39.18
2017-08-01T10:42:41.060Z,39.29
2017-08-01T10:43:41.105Z,39.29
2017-08-01T10:44:41.161Z,38.79
2017-08-01T10:45:41.173Z,38.29
2017-08-01T10:46:41.226Z,38.09
2017-08-01T10:47:41.259Z,38.2
2017-08-01T10:48:41.325Z,38.48
2017-08-01T10:49:41.366Z,38.26
2017-08-01T10:50:41.433Z,38.7
2017-08-01T10:51:41.496Z,39.46
2017-08-01T10:52:41.508Z,40.04
2017-08-01T10:53:41.541Z,40.34
2017-08-01T10:54:41.587Z,40.04
2017-08-01T10:55:41.606Z,40.74
2017-08-01T10:56:41.668Z,40.16
2017-08-01T10:57:41.706Z,40.08
2017-08-01T10:58:41.822Z,39.1
2017-08-01T10:59:41.798Z,39
2017-08-01T11:00:41.842Z,39.2
2017-08-01T11:01:41.908Z,39.68
2017-08-01T11:02:42.342Z,39.36
2017-08-01T11:03:41.987Z,39.48
2017-08-01T11:04:42.042Z,39.2
2017-08-01T11:05:42.086Z,39.22
2017-08-01T11:06:42.348Z,38.84
2017-08-01T11:07:42.140Z,39.43
2017-08-01T11:08:42.416Z,39.42
2017-08-01T11:09:42.225Z,39.62
2017-08-01T11:10:42.285Z,38.82
2017-08-01T11:11:42.327Z,38.7
2017-08-01T11:12:42.372Z,39.82
2017-08-01T11:13:42.410Z,39.62
2017-08-01T11:14:42.453Z,39.8
2017-08-01T11:15:42.728Z,39.4
2017-08-01T11:16:42.529Z,40.1
2017-08-01T11:17:42.582Z,38.82
2017-08-01T11:18:42.618Z,39.12
2017-08-01T11:19:42.666Z,38.84
2017-08-01T11:20:42.684Z,38.07
2017-08-01T11:21:42.752Z,38.04
2017-08-01T11:22:42.818Z,39.52
2017-08-01T11:23:42.832Z,39.38
2017-08-01T11:24:42.890Z,40.06
2017-08-01T11:25:42.945Z,40.06
2017-08-01T11:26:42.938Z,40.38
2017-08-01T11:27:42.990Z,40.22
2017-08-01T11:28:43.035Z,38.74
2017-08-01T11:29:43.080Z,39.88
2017-08-01T11:30:43.131Z,40.06
2017-08-01T11:31:43.170Z,40.04
2017-08-01T11:32:43.194Z,40.22
2017-08-01T11:33:43.233Z,40.92
2017-08-01T11:34:43.301Z,40.82
2017-08-01T11:35:43.305Z,41.33
2017-08-01T11:36:43.381Z,41.25
2017-08-01T11:37:43.407Z,41.33
2017-08-01T11:38:43.447Z,41.22
2017-08-01T11:39:43.501Z,40.62
2017-08-01T11:40:43.526Z,41.61
2017-08-01T11:41:43.584Z,42.69
2017-08-01T11:42:43.635Z,44.22
2017-08-01T11:43:43.644Z,46.22
2017-08-01T11:44:43.728Z,48.3
2017-08-01T11:45:43.783Z,50.59
2017-08-01T11:46:43.781Z,51.87
2017-08-01T11:47:43.840Z,54.43
2017-08-01T11:48:43.946Z,56.21
2017-08-01T11:49:43.893Z,58.19
2017-08-01T11:50:43.961Z,59.53
2017-08-01T11:51:43.990Z,58.82
2017-08-01T11:52:44.030Z,60.13
2017-08-01T11:53:44.063Z,61.35
2017-08-01T11:54:44.109Z,62.79
2017-08-01T11:55:44.165Z,63.15
2017-08-01T11:56:44.191Z,63.7
2017-08-01T11:57:44.236Z,63.8
2017-08-01T11:58:44.291Z,64.58
2017-08-01T11:59:44.309Z,66.21
2017-08-01T12:00:44.360Z,66.11
2017-08-01T12:01:44.418Z,66.21
2017-08-01T12:02:44.458Z,66.7
2017-08-01T12:03:44.931Z,67.29
2017-08-01T12:04:44.514Z,67.38
2017-08-01T12:05:44.596Z,67.68
2017-08-01T12:06:44.618Z,67.77
2017-08-01T12:07:44.826Z,68.36
2017-08-01T12:08:44.702Z,67.44
2017-08-01T12:09:44.725Z,66.66
2017-08-01T12:10:44.791Z,67.74
2017-08-01T12:11:44.812Z,67.8
2017-08-01T12:12:44.842Z,68.19
2017-08-01T12:13:44.904Z,68.59
2017-08-01T12:14:44.944Z,68.39
2017-08-01T12:15:44.976Z,68.06
2017-08-01T12:16:45.010Z,68.35
2017-08-01T12:17:45.070Z,68.94
2017-08-01T12:18:45.107Z,69.29
2017-08-01T12:19:45.169Z,69.2
2017-08-01T12:20:45.172Z,69.68
2017-08-01T12:21:45.228Z,70.53
2017-08-01T12:22:45.261Z,71.21
2017-08-01T12:23:45.313Z,71.31
2017-08-01T12:24:45.334Z,70.92
2017-08-01T12:25:45.409Z,70.82
2017-08-01T12:26:45.418Z,71.11
2017-08-01T12:27:45.474Z,71.6
2017-08-01T12:28:45.525Z,71.34
2017-08-01T12:29:45.542Z,71.34
2017-08-01T12:30:45.603Z,71.25
2017-08-01T12:31:45.642Z,71.44
2017-08-01T12:32:45.678Z,72.02
2017-08-01T12:33:45.728Z,73.1
2017-08-01T12:34:45.770Z,73.49
2017-08-01T12:35:45.797Z,73.88
2017-08-01T12:36:45.808Z,73.19
2017-08-01T12:37:45.883Z,72.12
2017-08-01T12:38:46.128Z,72.02
2017-08-01T12:39:45.945Z,71.73
2017-08-01T12:40:45.989Z,72.31
2017-08-01T12:41:46.023Z,72.41
2017-08-01T12:42:46.083Z,71.44
2017-08-01T12:43:46.122Z,71.47
2017-08-01T12:44:46.797Z,71.37
2017-08-01T12:45:46.212Z,71.31
2017-08-01T12:46:46.246Z,70.34
2017-08-01T12:47:46.250Z,69.85
2017-08-01T12:48:46.311Z,69.26
2017-08-01T12:49:46.350Z,69.1
2017-08-01T12:50:46.412Z,69.1
2017-08-01T12:51:46.460Z,67.93
2017-08-01T12:52:46.490Z,68.23
2017-08-01T12:53:46.546Z,68.65
2017-08-01T12:54:46.575Z,68.26
2017-08-01T12:55:46.631Z,67.48
2017-08-01T12:56:46.630Z,67.61